createdAt,value
2022-08-17T00:00:42.757Z,3.83
2022-08-17T00:03:14.512Z,4.13
2022-08-17T00:05:50.670Z,3.40
2022-08-17T00:08:22.890Z,4.73
2022-08-17T00:10:51.434Z,3.97
2022-08-17T00:13:32.930Z,4.20
2022-08-17T00:16:12.175Z,4.20
2022-08-17T00:18:53.894Z,4.73
2022-08-17T00:22:29.989Z,3.60
2022-08-17T00:24:16.389Z,3.60
2022-08-17T00:30:53.869Z,3.40
2022-08-17T00:33:30.684Z,3.93
2022-08-17T00:39:57.974Z,4.40
2022-08-17T00:42:30.354Z,3.93
2022-08-17T00:44:58.819Z,4.13
2022-08-17T00:47:26.372Z,5.27
2022-08-17T00:49:53.651Z,4.63
2022-08-17T00:52:30.213Z,3.77
2022-08-17T00:54:59.095Z,4.30
2022-08-17T00:57:42.165Z,3.97
2022-08-17T01:00:26.112Z,4.53
2022-08-17T01:03:02.353Z,4.03
2022-08-17T01:05:34.119Z,4.20
2022-08-17T01:08:02.771Z,4.37
2022-08-17T01:10:58.416Z,3.83
2022-08-17T01:13:30.764Z,4.20
2022-08-17T01:19:57.778Z,4.13
2022-08-17T01:22:26.089Z,4.17
2022-08-17T01:25:00.796Z,3.60
2022-08-17T01:27:29.202Z,4.10
2022-08-17T01:30:05.374Z,7.57
2022-08-17T01:32:52.568Z,4.40
2022-08-17T01:35:20.190Z,4.20
2022-08-17T01:37:47.416Z,4.10
2022-08-17T01:40:35.225Z,3.60
2022-08-17T01:43:14.664Z,3.70
2022-08-17T01:45:47.904Z,3.80
2022-08-17T01:48:36.592Z,4.70
2022-08-17T01:51:06.949Z,3.60
2022-08-17T01:53:44.442Z,6.20
2022-08-17T01:56:17.124Z,3.77
2022-08-17T01:58:46.017Z,4.37
2022-08-17T02:01:15.728Z,3.80
2022-08-17T02:03:53.455Z,4.17
2022-08-17T02:06:43.954Z,4.17
2022-08-17T02:09:17.070Z,3.73
2022-08-17T02:11:46.292Z,4.37
2022-08-17T02:14:14.461Z,4.17
2022-08-17T02:16:42.144Z,4.13
2022-08-17T02:19:15.767Z,4.47
2022-08-17T02:21:48.313Z,3.97
2022-08-17T02:24:58.909Z,4.87
2022-08-17T02:27:19.558Z,4.20
2022-08-17T02:29:46.757Z,4.67
2022-08-17T02:32:28.045Z,7.87
2022-08-17T02:35:01.295Z,5.30
2022-08-17T02:37:30.389Z,6.30
2022-08-17T02:39:58.988Z,4.60
2022-08-17T02:42:40.489Z,5.17
2022-08-17T02:49:17.230Z,4.70
2022-08-17T02:51:44.519Z,4.90
2022-08-17T02:54:40.471Z,4.33
2022-08-17T02:56:59.022Z,4.67
2022-08-17T02:59:26.302Z,4.43
2022-08-17T03:01:53.635Z,5.67
2022-08-17T03:04:20.996Z,4.50
2022-08-17T03:06:48.445Z,7.70
2022-08-17T03:09:15.633Z,4.70
2022-08-17T03:11:43.372Z,5.20
2022-08-17T03:14:10.693Z,4.93
2022-08-17T03:16:37.919Z,5.07
2022-08-17T03:19:06.471Z,6.00
2022-08-17T03:25:37.276Z,4.90
2022-08-17T03:28:07.030Z,5.43
2022-08-17T03:34:44.281Z,5.07
2022-08-17T03:37:11.466Z,4.60
2022-08-17T03:39:39.145Z,4.67
2022-08-17T03:42:32.331Z,4.63
2022-08-17T03:45:16.685Z,4.77
2022-08-17T03:47:44.124Z,4.70
2022-08-17T03:54:21.313Z,4.10
2022-08-17T04:06:07.439Z,5.20
2022-08-17T04:08:34.757Z,4.53
2022-08-17T04:15:12.664Z,5.13
2022-08-17T04:17:40.627Z,4.23
2022-08-17T04:23:50.145Z,6.93
2022-08-17T04:26:52.170Z,4.70
2022-08-17T04:33:07.100Z,4.13
2022-08-17T04:35:43.831Z,5.73
2022-08-17T04:38:19.072Z,5.10
2022-08-17T04:40:47.408Z,6.20
2022-08-17T04:43:19.018Z,6.20
2022-08-17T04:45:54.871Z,6.30
2022-08-17T04:59:47.868Z,6.43
2022-08-17T05:02:15.562Z,5.97
2022-08-17T05:04:43.222Z,5.87
2022-08-17T05:10:52.598Z,5.90
2022-08-17T05:17:07.363Z,6.67
2022-08-17T05:19:38.962Z,7.77
2022-08-17T05:22:06.830Z,5.87
2022-08-17T05:24:42.660Z,6.93
2022-08-17T05:27:15.080Z,5.83
2022-08-17T05:29:46.673Z,5.40
2022-08-17T05:32:39.691Z,6.00
2022-08-17T05:35:02.485Z,6.60
2022-08-17T05:37:30.154Z,5.30
2022-08-17T05:39:57.812Z,6.40
2022-08-17T05:42:36.034Z,5.30
2022-08-17T05:45:10.618Z,5.50
2022-08-17T05:47:39.843Z,10.07
2022-08-17T05:50:10.180Z,12.80
2022-08-17T05:53:02.697Z,8.53
2022-08-17T05:59:35.327Z,7.70
2022-08-17T06:02:28.692Z,6.03
2022-08-17T06:05:02.291Z,6.07
2022-08-17T06:08:08.922Z,6.03
2022-08-17T06:10:42.747Z,10.97
2022-08-17T06:13:25.305Z,8.03
2022-08-17T06:20:00.328Z,11.47
2022-08-17T06:22:33.479Z,9.50
2022-08-17T06:29:23.611Z,8.17
2022-08-17T06:31:50.934Z,7.50
2022-08-17T06:34:18.177Z,7.93
2022-08-17T06:37:20.282Z,7.93
2022-08-17T06:40:05.380Z,7.83
2022-08-17T06:43:11.807Z,9.33
2022-08-17T06:46:06.379Z,7.30
2022-08-17T06:48:58.834Z,7.83
2022-08-17T06:51:37.966Z,6.77
2022-08-17T06:54:13.290Z,6.70
2022-08-17T06:56:55.579Z,6.83
2022-08-17T06:59:36.379Z,6.57
2022-08-17T07:02:52.768Z,6.87
2022-08-17T07:05:35.623Z,6.20
2022-08-17T07:08:39.409Z,6.70
2022-08-17T07:11:31.790Z,6.97
2022-08-17T07:14:17.900Z,6.60
2022-08-17T07:16:58.279Z,6.43
2022-08-17T07:19:33.020Z,6.10
2022-08-17T07:22:05.814Z,7.10
2022-08-17T07:24:57.309Z,6.43
2022-08-17T07:27:32.886Z,6.53
2022-08-17T07:30:10.690Z,6.73
2022-08-17T07:32:44.261Z,6.60
2022-08-17T07:35:40.800Z,7.17
2022-08-17T07:38:26.305Z,8.00
2022-08-17T07:40:57.350Z,7.47
2022-08-17T07:43:39.974Z,6.97
2022-08-17T07:46:22.718Z,6.57
2022-08-17T07:48:55.171Z,6.87
2022-08-17T07:51:34.631Z,6.57
2022-08-17T07:54:21.660Z,7.43
2022-08-17T07:56:55.134Z,8.27
2022-08-17T07:59:39.064Z,8.50
2022-08-17T08:02:28.970Z,6.80
2022-08-17T08:05:31.723Z,7.47
2022-08-17T08:08:43.655Z,7.00
2022-08-17T08:11:29.998Z,7.23
2022-08-17T08:14:28.603Z,7.17
2022-08-17T08:17:02.950Z,6.40
2022-08-17T08:19:33.271Z,6.97
2022-08-17T08:22:11.403Z,6.27
2022-08-17T08:25:19.291Z,6.20
2022-08-17T08:28:16.208Z,6.87
2022-08-17T08:31:42.859Z,6.60
2022-08-17T08:35:02.218Z,6.57
2022-08-17T08:38:01.745Z,8.10
2022-08-17T08:41:07.928Z,5.47
2022-08-17T08:43:52.250Z,6.18
2022-08-17T08:46:55.933Z,7.95
2022-08-17T08:50:03.297Z,6.28
2022-08-17T08:53:11.867Z,5.65
2022-08-17T08:56:06.703Z,5.68
2022-08-17T08:58:54.245Z,5.80
2022-08-17T09:01:57.372Z,6.03
2022-08-17T09:05:13.973Z,5.60
2022-08-17T09:08:21.598Z,5.10
2022-08-17T09:11:19.477Z,5.65
2022-08-17T09:14:43.064Z,5.10
2022-08-17T09:17:19.340Z,5.00
2022-08-17T09:20:14.417Z,4.75
2022-08-17T09:23:41.631Z,5.07
2022-08-17T09:26:29.654Z,6.70
2022-08-17T09:29:06.397Z,5.28
2022-08-17T09:31:49.714Z,5.10
2022-08-17T09:34:31.885Z,5.07
2022-08-17T09:37:26.160Z,5.22
2022-08-17T09:40:14.433Z,4.95
2022-08-17T09:43:16.432Z,5.55
2022-08-17T09:46:14.288Z,5.18
2022-08-17T09:49:06.822Z,5.82
2022-08-17T09:51:42.917Z,5.30
2022-08-17T09:54:41.153Z,4.97
2022-08-17T09:57:43.943Z,4.90
2022-08-17T10:00:20.135Z,5.38
2022-08-17T10:03:40.893Z,5.18
2022-08-17T10:06:24.853Z,5.03
2022-08-17T10:09:17.312Z,5.22
2022-08-17T10:11:57.603Z,4.75
2022-08-17T10:14:46.350Z,5.03
2022-08-17T10:17:21.119Z,5.45
2022-08-17T10:20:29.437Z,5.85
2022-08-17T10:23:13.843Z,5.18
2022-08-17T10:26:07.218Z,5.30
2022-08-17T10:28:46.234Z,5.30
2022-08-17T10:31:38.309Z,5.13
2022-08-17T10:34:41.494Z,4.57
2022-08-17T10:37:47.589Z,5.85
2022-08-17T10:40:29.785Z,4.78
2022-08-17T10:43:15.158Z,5.07
2022-08-17T10:46:30.339Z,5.22
2022-08-17T10:49:44.251Z,4.63
2022-08-17T10:52:20.675Z,4.75
2022-08-17T10:55:14.512Z,4.60
2022-08-17T10:57:46.714Z,5.55
2022-08-17T11:00:27.729Z,5.38
2022-08-17T11:02:57.053Z,5.22
2022-08-17T11:05:44.088Z,4.75
2022-08-17T11:08:51.468Z,4.72
2022-08-17T11:12:06.069Z,5.28
2022-08-17T11:15:00.804Z,5.45
2022-08-17T11:18:15.197Z,5.43
2022-08-17T11:21:12.969Z,5.30
2022-08-17T11:24:26.909Z,5.65
2022-08-17T11:27:28.727Z,5.05
2022-08-17T11:30:03.090Z,5.13
2022-08-17T11:32:54.391Z,5.28
2022-08-17T11:35:22.095Z,5.30
2022-08-17T11:38:07.767Z,4.93
2022-08-17T11:40:51.573Z,5.72
2022-08-17T11:43:42.807Z,6.40
2022-08-17T11:46:40.058Z,7.75
2022-08-17T11:49:22.915Z,5.40
2022-08-17T11:52:02.160Z,5.68
2022-08-17T11:54:43.247Z,5.15
2022-08-17T11:57:27.714Z,5.38
2022-08-17T11:59:56.249Z,4.95
2022-08-17T12:03:26.018Z,4.93
2022-08-17T12:06:49.685Z,5.20
2022-08-17T12:09:25.048Z,4.40
2022-08-17T12:12:34.524Z,5.43
2022-08-17T12:15:10.465Z,4.35
2022-08-17T12:17:41.134Z,4.50
2022-08-17T12:20:29.885Z,5.07
2022-08-17T12:27:03.463Z,5.18
2022-08-17T12:29:38.845Z,5.10
2022-08-17T12:32:15.593Z,5.40
2022-08-17T12:34:45.315Z,5.90
2022-08-17T12:37:26.885Z,4.90
2022-08-17T12:40:07.653Z,5.28
2022-08-17T12:42:39.623Z,7.10
2022-08-17T12:45:33.697Z,5.53
2022-08-17T12:48:09.804Z,4.65
2022-08-17T12:50:44.805Z,5.05
2022-08-17T12:53:24.092Z,5.65
2022-08-17T12:59:32.624Z,5.00
2022-08-17T13:02:01.278Z,4.82
2022-08-17T13:04:29.725Z,5.13
2022-08-17T13:06:59.937Z,5.35
2022-08-17T13:09:36.038Z,5.65
2022-08-17T13:12:08.704Z,5.25
2022-08-17T13:14:35.996Z,5.32
2022-08-17T13:17:07.158Z,4.72
2022-08-17T13:19:49.525Z,4.85
2022-08-17T13:22:22.655Z,5.40
2022-08-17T13:24:54.821Z,4.70
2022-08-17T13:27:25.949Z,4.95
2022-08-17T13:30:08.079Z,4.68
2022-08-17T13:32:44.312Z,4.53
2022-08-17T13:35:39.435Z,5.57
2022-08-17T13:38:32.632Z,5.28
2022-08-17T13:40:59.860Z,4.72
2022-08-17T13:43:46.475Z,4.55
2022-08-17T13:46:30.357Z,5.18
2022-08-17T13:49:06.025Z,4.93
2022-08-17T13:51:44.519Z,4.75
2022-08-17T13:54:35.415Z,4.68
2022-08-17T13:57:19.533Z,4.43
2022-08-17T13:59:54.867Z,4.05
2022-08-17T14:02:25.999Z,5.10
2022-08-17T14:04:57.590Z,5.55
2022-08-17T14:07:34.845Z,4.65
2022-08-17T14:10:17.797Z,4.53
2022-08-17T14:12:46.103Z,5.45
2022-08-17T14:15:18.832Z,5.38
2022-08-17T14:17:47.556Z,4.68
2022-08-17T14:20:17.328Z,4.50
2022-08-17T14:22:48.758Z,5.72
2022-08-17T14:25:23.139Z,4.95
2022-08-17T14:27:53.793Z,5.13
2022-08-17T14:30:28.964Z,4.82
2022-08-17T14:32:59.670Z,4.75
2022-08-17T14:35:27.143Z,5.47
2022-08-17T14:37:54.460Z,5.15
2022-08-17T14:40:24.367Z,5.10
2022-08-17T14:42:53.960Z,5.00
2022-08-17T14:45:31.723Z,5.70
2022-08-17T14:48:01.379Z,5.13
2022-08-17T14:50:28.619Z,5.20
2022-08-17T14:52:55.835Z,5.10
2022-08-17T14:55:25.415Z,13.82
2022-08-17T14:57:53.073Z,5.93
2022-08-17T15:00:20.406Z,5.57
2022-08-17T15:02:52.914Z,5.70
2022-08-17T15:05:27.526Z,6.07
2022-08-17T15:07:54.707Z,4.97
2022-08-17T15:10:22.514Z,5.40
2022-08-17T15:12:50.262Z,5.53
2022-08-17T15:15:18.492Z,4.80
2022-08-17T15:17:46.253Z,5.28
2022-08-17T15:20:27.620Z,5.95
2022-08-17T15:26:54.323Z,6.20
2022-08-17T15:29:21.526Z,5.10
2022-08-17T15:31:48.774Z,5.13
2022-08-17T15:34:16.049Z,5.65
2022-08-17T15:36:49.261Z,4.95
2022-08-17T15:39:19.667Z,5.57
2022-08-17T15:41:47.123Z,5.03
2022-08-17T15:44:32.704Z,5.45
2022-08-17T15:47:02.446Z,5.15
2022-08-17T15:49:29.664Z,5.85
2022-08-17T15:51:56.822Z,5.65
2022-08-17T15:54:23.975Z,5.82
2022-08-17T15:56:51.409Z,6.75
2022-08-17T15:59:18.563Z,5.65
2022-08-17T16:03:01.430Z,5.70
2022-08-17T16:04:33.115Z,5.78
2022-08-17T16:07:00.725Z,6.18
2022-08-17T16:09:28.424Z,7.18
2022-08-17T16:11:56.498Z,5.60
2022-08-17T16:14:25.349Z,6.05
2022-08-17T16:17:04.286Z,5.38
2022-08-17T16:19:33.255Z,5.57
2022-08-17T16:22:00.519Z,7.32
2022-08-17T16:24:28.268Z,9.75
2022-08-17T16:26:55.531Z,12.95
2022-08-17T16:29:23.346Z,5.97
2022-08-17T16:31:51.155Z,8.90
2022-08-17T16:34:18.794Z,7.32
2022-08-17T16:36:55.473Z,6.88
2022-08-17T16:39:28.156Z,5.88
2022-08-17T16:41:56.609Z,6.32
2022-08-17T16:44:24.620Z,5.35
2022-08-17T16:46:51.802Z,6.03
2022-08-17T16:49:24.472Z,6.15
2022-08-17T16:52:10.036Z,6.32
2022-08-17T16:54:44.382Z,6.53
2022-08-17T16:57:16.027Z,7.40
2022-08-17T16:59:48.132Z,7.50
2022-08-17T17:02:31.565Z,6.05
2022-08-17T17:05:13.680Z,7.30
2022-08-17T17:08:08.702Z,6.85
2022-08-17T17:11:03.586Z,8.25
2022-08-17T17:13:57.994Z,6.57
2022-08-17T17:16:40.207Z,6.60
2022-08-17T17:19:34.468Z,8.63
2022-08-17T17:22:13.859Z,12.23
2022-08-17T17:25:14.781Z,12.15
2022-08-17T17:28:05.979Z,6.88
2022-08-17T17:31:02.084Z,7.10
2022-08-17T17:33:41.180Z,6.63
2022-08-17T17:36:37.400Z,12.88
2022-08-17T17:39:25.661Z,6.82
2022-08-17T17:42:00.179Z,6.78
2022-08-17T17:44:46.891Z,7.10
2022-08-17T17:47:20.590Z,7.00
2022-08-17T17:49:47.852Z,8.02
2022-08-17T17:52:48.621Z,7.43
2022-08-17T17:55:53.741Z,6.75
2022-08-17T17:58:42.924Z,7.32
2022-08-17T18:01:54.205Z,6.47
2022-08-17T18:04:43.405Z,7.53
2022-08-17T18:07:42.728Z,7.15
2022-08-17T18:10:30.367Z,6.55
2022-08-17T18:13:17.382Z,9.02
2022-08-17T18:15:52.438Z,7.00
2022-08-17T18:18:38.167Z,7.13
2022-08-17T18:21:16.846Z,8.38
2022-08-17T18:23:52.312Z,7.00
2022-08-17T18:26:43.790Z,7.55
2022-08-17T18:29:41.614Z,7.78
2022-08-17T18:32:24.831Z,6.97
2022-08-17T18:35:01.829Z,6.80
2022-08-17T18:38:19.959Z,7.50
2022-08-17T18:41:00.635Z,7.20
2022-08-17T18:43:53.002Z,7.95
2022-08-17T18:46:37.645Z,7.60
2022-08-17T18:49:28.148Z,7.43
2022-08-17T18:52:26.063Z,7.03
2022-08-17T18:55:24.141Z,7.28
2022-08-17T18:57:59.635Z,8.10
2022-08-17T19:00:39.394Z,7.53
2022-08-17T19:03:16.103Z,7.50
2022-08-17T19:06:15.958Z,7.25
2022-08-17T19:08:43.307Z,7.50
2022-08-17T19:11:21.338Z,7.47
2022-08-17T19:14:08.949Z,7.55
2022-08-17T19:16:43.930Z,8.50
2022-08-17T19:19:27.155Z,8.00
2022-08-17T19:22:28.735Z,7.72
2022-08-17T19:25:21.891Z,7.70
2022-08-17T19:27:57.286Z,8.55
2022-08-17T19:30:25.752Z,7.63
2022-08-17T19:32:53.007Z,8.07
2022-08-17T19:35:24.774Z,8.18
2022-08-17T19:38:03.234Z,8.98
2022-08-17T19:41:00.601Z,9.13
2022-08-17T19:44:15.936Z,8.25
2022-08-17T19:47:06.387Z,7.22
2022-08-17T19:49:48.994Z,8.55
2022-08-17T19:52:37.580Z,7.40
2022-08-17T19:55:20.574Z,8.70
2022-08-17T19:58:03.337Z,7.65
2022-08-17T20:00:34.664Z,7.97
2022-08-17T20:03:16.208Z,8.65
2022-08-17T20:09:18.432Z,8.00
2022-08-17T20:11:55.498Z,7.78
2022-08-17T20:14:37.953Z,8.40
2022-08-17T20:17:05.934Z,8.32
2022-08-17T20:19:50.367Z,10.55
2022-08-17T20:22:51.869Z,8.40
2022-08-17T20:25:44.652Z,8.32
2022-08-17T20:28:30.918Z,8.27
2022-08-17T20:30:59.343Z,9.77
2022-08-17T20:33:37.118Z,7.75
2022-08-17T20:36:18.074Z,8.20
2022-08-17T20:38:58.093Z,7.57
2022-08-17T20:41:30.487Z,7.40
2022-08-17T20:43:57.928Z,7.90
2022-08-17T20:46:37.450Z,8.88
2022-08-17T20:49:21.923Z,8.55
2022-08-17T20:52:01.601Z,7.82
2022-08-17T20:54:42.793Z,7.30
2022-08-17T20:57:29.993Z,7.85
2022-08-17T21:00:09.678Z,7.65
2022-08-17T21:02:37.262Z,8.07
2022-08-17T21:05:34.309Z,7.72
2022-08-17T21:08:12.503Z,8.15
2022-08-17T21:10:41.822Z,7.25
2022-08-17T21:13:09.373Z,7.70
2022-08-17T21:15:43.650Z,7.40
2022-08-17T21:18:11.248Z,7.50
2022-08-17T21:21:04.698Z,7.28
2022-08-17T21:23:50.309Z,8.35
2022-08-17T21:26:50.351Z,7.20
2022-08-17T21:29:33.820Z,8.25
2022-08-17T21:32:05.533Z,7.72
2022-08-17T21:34:43.836Z,7.22
2022-08-17T21:37:23.375Z,7.25
2022-08-17T21:40:11.321Z,8.00
2022-08-17T21:42:55.848Z,7.50
2022-08-17T21:45:31.956Z,7.57
2022-08-17T21:48:10.795Z,7.13
2022-08-17T21:50:39.751Z,7.30
2022-08-17T21:53:08.692Z,8.60
2022-08-17T21:55:37.351Z,7.28
2022-08-17T21:58:36.827Z,7.68
2022-08-17T22:01:20.936Z,6.50
2022-08-17T22:04:03.051Z,7.20
2022-08-17T22:06:39.758Z,8.50
2022-08-17T22:09:10.325Z,7.13
2022-08-17T22:12:00.909Z,6.97
2022-08-17T22:14:52.154Z,7.40
2022-08-17T22:17:27.240Z,6.53
2022-08-17T22:19:59.672Z,7.55
2022-08-17T22:22:32.539Z,7.40
2022-08-17T22:25:05.851Z,7.78
2022-08-17T22:27:51.460Z,7.57
2022-08-17T22:30:34.580Z,6.57
2022-08-17T22:33:37.413Z,6.35
2022-08-17T22:36:23.259Z,6.50
2022-08-17T22:38:53.984Z,6.25
2022-08-17T22:41:39.807Z,9.55
2022-08-17T22:44:32.146Z,5.32
2022-08-17T22:47:22.360Z,6.97
2022-08-17T22:49:56.909Z,5.70
2022-08-17T22:52:38.164Z,5.75
2022-08-17T22:55:13.977Z,6.05
2022-08-17T22:57:47.935Z,6.57
2022-08-17T23:00:31.862Z,5.93
2022-08-17T23:03:11.663Z,5.85
2022-08-17T23:05:41.420Z,5.50
2022-08-17T23:08:09.288Z,5.63
2022-08-17T23:10:36.947Z,5.70
2022-08-17T23:13:04.636Z,5.47
2022-08-17T23:15:32.181Z,6.30
2022-08-17T23:18:01.010Z,5.47
2022-08-17T23:20:28.517Z,5.32
2022-08-17T23:22:56.168Z,5.18
2022-08-17T23:25:27.920Z,5.63
2022-08-17T23:27:56.714Z,5.28
2022-08-17T23:30:24.693Z,4.60
2022-08-17T23:32:54.323Z,5.80
2022-08-17T23:35:40.097Z,5.55
2022-08-17T23:38:10.201Z,5.15
2022-08-17T23:40:39.342Z,4.88
2022-08-17T23:43:11.477Z,4.93
2022-08-17T23:45:54.252Z,5.35
2022-08-17T23:48:28.611Z,5.88
2022-08-17T23:51:08.034Z,8.43
2022-08-17T23:53:39.330Z,7.22
2022-08-17T23:56:10.381Z,7.07
2022-08-17T23:58:43.612Z,6.33
